Time;durP1;ratioP1;P1;durP2;ratioP2;P2;SDS_P1;SDS_P2;PMS_P1;PMS_P2;Temp;Humidity;BMP_temperature;BMP_pressure;BME280_temperature;BME280_humidity;BME280_pressure;Samples;Min_cycle;Max_cycle;Signal;HPM_P1;HPM_P2
2022/07/24 00:00:05;;;;;;;12.95;8.27;;;;;;;18.30;72.41;101848.91;5026744;28;20072;-56
2022/07/24 00:02:30;;;;;;;10.02;7.97;;;;;;;18.27;72.47;101834.00;5024564;28;20052;-57
2022/07/24 00:04:56;;;;;;;11.90;8.48;;;;;;;18.20;72.11;101844.69;5022434;28;20398;-57
2022/07/24 00:07:22;;;;;;;10.48;8.60;;;;;;;18.11;72.58;101848.56;5034179;28;20032;-57
2022/07/24 00:09:47;;;;;;;11.35;8.68;;;;;;;18.11;72.56;101836.97;5020413;28;20036;-56
2022/07/24 00:12:12;;;;;;;10.82;8.95;;;;;;;18.11;72.59;101839.66;5032931;28;20644;-54
2022/07/24 00:14:38;;;;;;;13.73;10.02;;;;;;;18.07;72.83;101846.47;5023336;28;20037;-56
2022/07/24 00:17:03;;;;;;;10.32;9.13;;;;;;;18.18;72.98;101838.66;5030086;28;20025;-57
2022/07/24 00:19:28;;;;;;;12.32;9.80;;;;;;;18.22;72.97;101836.44;5028776;28;20479;-56
2022/07/24 00:21:54;;;;;;;16.80;11.30;;;;;;;18.14;72.97;101826.66;5019955;28;20022;-55
2022/07/24 00:24:19;;;;;;;16.00;12.07;;;;;;;18.22;72.53;101831.91;5032255;28;20032;-56
2022/07/24 00:26:44;;;;;;;16.23;12.40;;;;;;;18.31;72.68;101839.81;5022592;28;20044;-57
2022/07/24 00:29:09;;;;;;;12.85;11.40;;;;;;;18.30;72.45;101835.47;5032332;28;20149;-57
2022/07/24 00:31:35;;;;;;;12.35;10.75;;;;;;;18.21;72.97;101830.25;5022743;28;20025;-56
2022/07/24 00:34:00;;;;;;;15.52;12.43;;;;;;;18.25;72.64;101836.88;5023793;28;20152;-56
2022/07/24 00:36:26;;;;;;;13.30;11.52;;;;;;;18.19;72.66;101828.75;5022650;28;20033;-55
2022/07/24 00:38:51;;;;;;;15.45;12.10;;;;;;;18.19;72.98;101829.59;5021847;28;20159;-57
2022/07/24 00:41:16;;;;;;;15.38;12.13;;;;;;;18.18;72.67;101843.22;5022087;28;20410;-54
2022/07/24 00:44:05;;;;;;;16.15;12.20;;;;;;;18.18;72.71;101845.91;5030036;28;20033;-55
2022/07/24 00:46:31;;;;;;;;;;;;;;;18.37;72.18;101847.91;5027878;28;20033;-57
2022/07/24 00:48:57;;;;;;;17.52;13.20;;;;;;;18.30;71.97;101848.91;5024954;28;19913;-56
2022/07/24 00:51:23;;;;;;;14.75;12.00;;;;;;;18.21;72.54;101845.50;5023444;28;20667;-56
2022/07/24 00:53:49;;;;;;;18.23;12.93;;;;;;;18.11;72.42;101840.50;5027188;28;20074;-56
2022/07/24 00:56:14;;;;;;;16.92;14.07;;;;;;;18.19;72.42;101839.50;5030146;28;20033;-53
2022/07/24 00:58:39;;;;;;;15.82;13.15;;;;;;;18.25;72.51;101836.06;5026620;28;20026;-55
2022/07/24 01:01:05;;;;;;;16.67;13.70;;;;;;;18.24;71.93;101837.09;5028726;28;20037;-56
2022/07/24 01:03:30;;;;;;;14.82;12.57;;;;;;;18.31;72.17;101831.75;5025849;28;20063;-56
2022/07/24 01:05:55;;;;;;;17.77;13.45;;;;;;;18.32;72.23;101826.16;5026042;28;20506;-56
2022/07/24 01:08:22;;;;;;;16.25;13.07;;;;;;;18.30;72.19;101828.22;5022143;28;20025;-54
2022/07/24 01:10:47;;;;;;;17.15;13.02;;;;;;;18.32;71.82;101828.84;5032548;28;20040;-57
2022/07/24 01:13:13;;;;;;;16.58;13.10;;;;;;;18.33;71.60;101832.38;5029192;28;20018;-57
2022/07/24 01:15:39;;;;;;;16.50;13.13;;;;;;;18.31;71.73;101824.50;5027900;28;20029;-55
2022/07/24 01:18:04;;;;;;;18.52;13.57;;;;;;;18.30;71.42;101816.63;5022681;28;20503;-55
2022/07/24 01:20:29;;;;;;;17.67;12.80;;;;;;;18.30;71.45;101817.47;5026130;28;20032;-52
2022/07/24 01:22:55;;;;;;;18.60;13.23;;;;;;;18.29;71.49;101814.97;5022271;28;20399;-56
2022/07/24 01:25:20;;;;;;;16.85;13.25;;;;;;;18.31;71.33;101816.44;5027133;28;20052;-57
2022/07/24 01:27:45;;;;;;;16.33;13.35;;;;;;;18.35;71.00;101808.81;5025449;28;20079;-55
2022/07/24 01:30:11;;;;;;;15.52;12.80;;;;;;;18.34;71.03;101812.53;5023502;28;20033;-56
2022/07/24 01:32:37;;;;;;;15.18;12.70;;;;;;;18.20;71.15;101814.28;5022318;28;20064;-55
2022/07/24 01:35:03;;;;;;;17.55;12.93;;;;;;;18.18;71.20;101811.78;5020119;28;20025;-56
2022/07/24 01:37:29;;;;;;;17.13;13.40;;;;;;;18.08;71.11;101814.00;5024899;28;20040;-56
2022/07/24 01:39:54;;;;;;;16.40;13.45;;;;;;;17.84;70.72;101823.31;5024405;28;20021;-55
2022/07/24 01:42:20;;;;;;;17.67;12.98;;;;;;;17.57;70.75;101816.84;5022227;28;20033;-55
2022/07/24 01:44:46;;;;;;;16.48;13.82;;;;;;;17.39;71.38;101826.41;5022215;28;20633;-57
2022/07/24 01:47:11;;;;;;;16.98;14.02;;;;;;;17.23;72.14;101822.94;5025360;28;20108;-55
2022/07/24 01:49:36;;;;;;;19.25;14.52;;;;;;;17.17;72.77;101807.59;5029117;28;20108;-57
2022/07/24 01:52:02;;;;;;;17.13;14.73;;;;;;;17.18;73.16;101819.16;5028058;28;20494;-55
2022/07/24 01:54:27;;;;;;;19.10;14.75;;;;;;;17.17;73.23;101814.81;5029884;28;20036;-56
2022/07/24 01:56:52;;;;;;;17.73;14.85;;;;;;;17.13;73.37;101817.03;5026159;28;20107;-55
2022/07/24 01:59:18;;;;;;;18.23;14.73;;;;;;;17.12;73.58;101811.88;5029582;28;20033;-56
2022/07/24 02:01:43;;;;;;;17.85;15.43;;;;;;;17.04;73.45;101807.44;5028284;28;20053;-56
2022/07/24 02:04:08;;;;;;;18.70;14.85;;;;;;;17.05;73.54;101809.09;5031302;28;20018;-57
2022/07/24 02:06:33;;;;;;;19.48;14.75;;;;;;;16.92;73.84;101812.47;5028678;28;20021;-57
2022/07/24 02:08:59;;;;;;;20.55;14.55;;;;;;;16.88;73.70;101821.09;5027288;28;20025;-56
2022/07/24 02:11:24;;;;;;;22.95;14.63;;;;;;;16.77;74.17;101814.38;5030371;28;20032;-56
2022/07/24 02:13:49;;;;;;;18.65;14.95;;;;;;;16.77;74.63;101817.03;5030478;28;20021;-57
2022/07/24 02:16:15;;;;;;;20.33;15.27;;;;;;;16.72;74.87;101812.22;5030924;28;20044;-55
2022/07/24 02:18:40;;;;;;;16.98;14.55;;;;;;;16.75;75.02;101813.69;5022592;28;20060;-57
2022/07/24 02:21:05;;;;;;;18.15;14.85;;;;;;;16.80;75.49;101808.63;5026646;28;20702;-57
2022/07/24 02:23:31;;;;;;;16.73;14.35;;;;;;;16.85;75.13;101808.88;5023794;28;20037;-57
2022/07/24 02:25:56;;;;;;;20.65;15.25;;;;;;;16.95;74.96;101809.41;5029402;28;20060;-55
2022/07/24 02:28:21;;;;;;;17.00;14.07;;;;;;;16.98;74.85;101800.97;5028237;28;20037;-57
2022/07/24 02:30:47;;;;;;;16.55;14.13;;;;;;;16.99;75.05;101799.94;5028072;28;20143;-56
2022/07/24 02:33:12;;;;;;;18.33;14.15;;;;;;;16.93;74.72;101798.03;5022809;28;20109;-55
2022/07/24 02:35:38;;;;;;;17.33;13.63;;;;;;;16.99;74.99;101802.63;5029088;28;20033;-56
2022/07/24 02:38:04;;;;;;;16.20;13.32;;;;;;;17.01;74.61;101803.28;5026129;28;20025;-57
2022/07/24 02:40:30;;;;;;;18.35;13.77;;;;;;;16.92;75.01;101801.72;5027369;28;20029;-57
2022/07/24 02:42:56;;;;;;;18.13;13.90;;;;;;;16.86;75.32;101799.81;5021181;28;20066;-56
2022/07/24 02:45:21;;;;;;;16.52;13.57;;;;;;;16.82;75.01;101800.38;5031443;28;20037;-56
2022/07/24 02:47:57;;;;;;;16.60;13.23;;;;;;;16.86;75.34;101804.34;5027973;28;20449;-53
2022/07/24 02:50:24;;;;;;;17.20;13.85;;;;;;;16.83;75.15;101813.59;5027604;28;20617;-57
2022/07/24 02:52:50;;;;;;;19.00;14.00;;;;;;;16.82;75.57;101814.63;5027558;28;20036;-54
2022/07/24 02:55:15;;;;;;;14.70;13.10;;;;;;;16.63;75.25;101810.63;5026998;28;20025;-57
2022/07/24 02:57:41;;;;;;;18.85;14.75;;;;;;;16.56;75.48;101808.88;5025501;28;20625;-57
2022/07/24 03:00:10;;;;;;;15.75;13.93;;;;;;;16.45;75.67;101807.47;5022268;28;20754;-56
2022/07/24 03:02:36;;;;;;;19.58;14.10;;;;;;;16.48;75.78;101803.59;5022880;28;20036;-55
2022/07/24 03:05:03;;;;;;;19.95;13.65;;;;;;;16.49;75.97;101805.28;5021232;28;20022;-56
2022/07/24 03:07:28;;;;;;;18.38;14.68;;;;;;;16.52;76.64;101804.91;5023776;28;20037;-55
2022/07/24 03:09:54;;;;;;;18.88;14.30;;;;;;;16.47;76.07;101801.94;5021093;28;20471;-57
2022/07/24 03:12:19;;;;;;;18.88;14.45;;;;;;;16.48;76.27;101804.47;5022876;28;20164;-56
2022/07/24 03:14:44;;;;;;;19.92;15.68;;;;;;;16.53;76.74;101799.38;5019907;28;20022;-55
2022/07/24 03:17:10;;;;;;;18.80;14.65;;;;;;;16.48;76.44;101808.97;5027379;28;20033;-56
2022/07/24 03:19:35;;;;;;;18.75;15.25;;;;;;;16.45;76.80;101799.44;5021615;28;20033;-54
2022/07/24 03:22:00;;;;;;;19.00;14.82;;;;;;;16.50;76.62;101802.44;5022481;28;20104;-56
2022/07/24 03:24:26;;;;;;;17.52;13.85;;;;;;;16.54;76.85;101793.00;5017637;28;20033;-56
2022/07/24 03:26:51;;;;;;;14.55;12.95;;;;;;;16.53;76.30;101790.50;5023471;28;20022;-56
2022/07/24 03:29:16;;;;;;;17.45;13.00;;;;;;;16.57;76.18;101789.94;5017585;28;20060;-56
2022/07/24 03:31:42;;;;;;;15.50;13.07;;;;;;;16.61;76.32;101799.25;5021859;28;20387;-56
2022/07/24 03:34:08;;;;;;;14.48;12.35;;;;;;;16.53;76.37;101795.84;5023847;28;20022;-55
2022/07/24 03:36:33;;;;;;;16.52;13.63;;;;;;;16.61;76.25;101793.91;5023956;28;20661;-56
2022/07/24 03:38:59;;;;;;;15.00;12.73;;;;;;;16.64;76.06;101798.06;5026069;28;20029;-56
2022/07/24 03:41:24;;;;;;;14.35;12.75;;;;;;;16.51;76.08;101785.31;5022555;28;20037;-56
2022/07/24 03:43:49;;;;;;;16.27;12.90;;;;;;;16.55;76.04;101799.19;5021691;28;20024;-56
2022/07/24 03:46:14;;;;;;;17.25;13.98;;;;;;;16.63;76.27;101796.38;5022806;28;20116;-56
2022/07/24 03:48:40;;;;;;;18.08;13.68;;;;;;;16.62;76.47;101792.88;5029349;28;20040;-56
2022/07/24 03:51:05;;;;;;;16.00;14.30;;;;;;;16.65;76.75;101787.13;5022047;28;20029;-56
2022/07/24 03:53:30;;;;;;;19.23;15.40;;;;;;;16.69;76.60;101787.63;5025025;28;20030;-57
2022/07/24 03:55:56;;;;;;;19.20;15.02;;;;;;;16.64;76.62;101795.38;5023737;28;20079;-57
2022/07/24 03:58:21;;;;;;;19.33;15.70;;;;;;;16.67;77.11;101789.66;5025486;28;20933;-56
2022/07/24 04:00:46;;;;;;;19.48;15.32;;;;;;;16.73;77.16;101788.91;5023850;28;20375;-54
2022/07/24 04:03:11;;;;;;;22.35;17.05;;;;;;;16.72;77.06;101779.19;5024438;28;20029;-53
2022/07/24 04:05:37;;;;;;;19.95;16.70;;;;;;;16.70;77.40;101775.88;5019508;28;20088;-57
2022/07/24 04:08:02;;;;;;;19.23;16.13;;;;;;;16.72;77.10;101779.19;5019121;28;20495;-56
2022/07/24 04:10:28;;;;;;;20.50;16.10;;;;;;;16.80;77.40;101781.78;5025094;28;20043;-55
2022/07/24 04:12:53;;;;;;;20.25;16.17;;;;;;;16.85;77.08;101779.38;5028669;28;20021;-56
2022/07/24 04:15:18;;;;;;;20.85;16.33;;;;;;;16.84;77.05;101772.34;5022910;28;20029;-57
2022/07/24 04:17:44;;;;;;;20.20;16.50;;;;;;;16.83;77.12;101767.16;5019600;28;20049;-53
2022/07/24 04:20:10;;;;;;;22.02;16.95;;;;;;;16.81;76.96;101780.78;5020195;28;20088;-56
2022/07/24 04:22:35;;;;;;;21.35;16.73;;;;;;;16.82;77.24;101784.28;5026456;28;20037;-56
2022/07/24 04:25:01;;;;;;;23.88;17.60;;;;;;;16.80;77.55;101795.19;5022572;28;20095;-56
2022/07/24 04:27:26;;;;;;;26.10;17.75;;;;;;;16.78;77.27;101794.56;5023759;28;20475;-57
2022/07/24 04:29:51;;;;;;;19.83;17.20;;;;;;;16.82;77.51;101789.66;5023239;28;20035;-56
2022/07/24 04:32:16;;;;;;;24.02;17.77;;;;;;;16.87;77.61;101797.97;5022142;28;20028;-55
2022/07/24 04:34:42;;;;;;;22.65;17.60;;;;;;;16.83;77.50;101800.19;5021854;28;20399;-57
2022/07/24 04:37:07;;;;;;;25.33;18.40;;;;;;;16.83;77.66;101804.72;5020404;28;20766;-56
2022/07/24 04:39:32;;;;;;;28.95;20.50;;;;;;;16.83;77.75;101802.88;5023233;28;20505;-57
2022/07/24 04:41:57;;;;;;;27.42;21.55;;;;;;;16.84;78.12;101809.91;5019367;28;20027;-56
2022/07/24 04:44:23;;;;;;;29.13;22.13;;;;;;;16.80;78.38;101807.78;5019167;28;20076;-55
2022/07/24 04:46:48;;;;;;;30.45;22.08;;;;;;;16.86;77.98;101807.03;5021277;28;20032;-55
2022/07/24 04:49:13;;;;;;;32.50;23.23;;;;;;;16.81;78.15;101809.44;5020588;28;20026;-57
2022/07/24 04:51:39;;;;;;;29.70;23.88;;;;;;;16.78;78.12;101805.28;5022099;28;20037;-56
2022/07/24 04:54:04;;;;;;;32.25;24.33;;;;;;;16.71;78.52;101788.25;5022838;28;20037;-56
2022/07/24 04:56:32;;;;;;;35.75;24.83;;;;;;;16.76;79.04;101807.31;5020833;28;20030;-56
2022/07/24 04:58:57;;;;;;;34.47;25.50;;;;;;;16.76;78.99;101796.56;5018271;28;20051;-56
2022/07/24 05:01:23;;;;;;;39.17;26.25;;;;;;;16.75;79.33;101794.91;5022417;28;20029;-57
2022/07/24 05:03:48;;;;;;;38.13;26.83;;;;;;;16.72;79.33;101796.13;5019664;28;20427;-57
2022/07/24 05:06:13;;;;;;;38.03;26.63;;;;;;;16.70;79.78;101791.97;5020525;28;20030;-56
2022/07/24 05:08:39;;;;;;;37.10;26.38;;;;;;;16.70;80.02;101787.44;5020678;28;20428;-56
2022/07/24 05:11:04;;;;;;;36.67;27.48;;;;;;;16.70;79.83;101789.28;5018711;28;20523;-56
2022/07/24 05:13:29;;;;;;;39.25;28.77;;;;;;;16.70;80.30;101791.97;5021817;28;20029;-55
2022/07/24 05:15:55;;;;;;;41.45;29.98;;;;;;;16.72;80.75;101789.91;5022971;28;20021;-55
2022/07/24 05:18:20;;;;;;;39.70;29.50;;;;;;;16.66;80.74;101783.47;5017576;28;20451;-54
2022/07/24 05:20:46;;;;;;;39.97;30.42;;;;;;;16.75;80.89;101789.53;5028354;28;20116;-56
2022/07/24 05:23:11;;;;;;;43.45;30.65;;;;;;;16.75;81.37;101791.41;5021158;28;20072;-56
2022/07/24 05:25:36;;;;;;;44.58;32.08;;;;;;;16.82;81.54;101808.44;5024222;28;20882;-56
2022/07/24 05:28:01;;;;;;;44.40;32.47;;;;;;;16.86;81.54;101812.41;5021591;28;20060;-56
2022/07/24 05:30:27;;;;;;;46.63;32.45;;;;;;;16.87;81.79;101806.00;5034072;28;20028;-57
2022/07/24 05:32:52;;;;;;;45.60;33.22;;;;;;;16.89;82.24;101812.84;5024043;28;20032;-54
2022/07/24 05:35:18;;;;;;;46.58;33.03;;;;;;;16.90;82.22;101813.69;5033643;28;20100;-56
2022/07/24 05:37:43;;;;;;;50.67;34.55;;;;;;;16.90;82.63;101813.69;5026428;28;20018;-56
2022/07/24 05:40:09;;;;;;;47.80;34.30;;;;;;;16.93;82.76;101819.50;5033052;28;20020;-54
2022/07/24 05:42:34;;;;;;;49.00;34.72;;;;;;;16.95;82.86;101832.72;5030822;28;20033;-52
2022/07/24 05:45:00;;;;;;;52.22;36.53;;;;;;;16.96;83.14;101815.59;5020539;28;20032;-54
2022/07/24 05:47:25;;;;;;;49.80;36.50;;;;;;;17.00;83.19;101816.88;5033827;28;20024;-55
2022/07/24 05:49:50;;;;;;;53.47;36.28;;;;;;;17.04;83.41;101820.84;5028813;28;20044;-54
2022/07/24 05:52:15;;;;;;;50.88;35.88;;;;;;;17.05;83.66;101817.13;5031348;28;20017;-57
2022/07/24 05:54:41;;;;;;;51.50;35.42;;;;;;;17.09;83.56;101817.63;5024713;28;20022;-57
2022/07/24 05:57:06;;;;;;;51.08;35.13;;;;;;;17.10;83.68;101814.75;5025495;28;20029;-57
2022/07/24 05:59:31;;;;;;;52.85;35.88;;;;;;;17.17;83.53;101814.81;5025722;28;20478;-57
2022/07/24 06:01:57;;;;;;;46.28;34.88;;;;;;;17.19;83.85;101824.34;5025848;28;20049;-56
2022/07/24 06:04:22;;;;;;;48.28;35.05;;;;;;;17.23;83.73;101825.63;5028501;28;20493;-55
2022/07/24 06:06:47;;;;;;;51.75;34.83;;;;;;;17.29;83.83;101830.22;5026791;28;20430;-57
2022/07/24 06:09:12;;;;;;;47.22;34.20;;;;;;;17.31;83.37;101817.44;5025918;28;20036;-57
2022/07/24 06:11:38;;;;;;;50.22;34.97;;;;;;;17.40;83.41;101825.38;5033872;28;20102;-56
2022/07/24 06:14:04;;;;;;;50.40;35.05;;;;;;;17.44;83.27;101832.88;5019884;28;20220;-57
2022/07/24 06:16:29;;;;;;;49.45;35.35;;;;;;;17.49;83.66;101830.44;5028643;28;20098;-55
2022/07/24 06:18:54;;;;;;;50.70;35.78;;;;;;;17.57;83.36;101824.91;5027789;28;20167;-57
2022/07/24 06:21:20;;;;;;;48.42;35.00;;;;;;;17.61;83.05;101822.66;5031659;28;20048;-56
2022/07/24 06:23:45;;;;;;;47.10;34.25;;;;;;;17.65;82.94;101824.81;5023343;28;20029;-57
2022/07/24 06:26:10;;;;;;;45.65;33.95;;;;;;;17.76;82.92;101826.16;5031989;28;20052;-57
2022/07/24 06:28:35;;;;;;;48.88;35.28;;;;;;;17.85;82.72;101825.00;5030771;28;20474;-56
2022/07/24 06:31:01;;;;;;;45.97;31.27;;;;;;;17.91;82.20;101829.56;5022194;28;20029;-56
2022/07/24 06:33:26;;;;;;;47.22;31.88;;;;;;;17.94;81.60;101831.91;5027204;28;20063;-56
2022/07/24 06:35:51;;;;;;;45.53;31.17;;;;;;;18.00;81.04;101829.47;5034126;28;20021;-56
2022/07/24 06:38:17;;;;;;;47.75;31.05;;;;;;;18.07;80.93;101833.84;5038213;28;20025;-55
2022/07/24 06:40:42;;;;;;;43.00;31.13;;;;;;;18.15;80.51;101835.56;5031313;28;20025;-57
2022/07/24 06:43:07;;;;;;;37.67;27.90;;;;;;;18.15;80.21;101828.31;5039419;28;20021;-57
2022/07/24 06:45:33;;;;;;;38.15;28.77;;;;;;;18.29;79.73;101828.41;5033847;28;20027;-57
2022/07/24 06:48:00;;;;;;;39.95;27.55;;;;;;;18.34;79.53;101832.19;5027577;28;20029;-56
2022/07/24 06:50:25;;;;;;;37.47;28.00;;;;;;;18.38;79.05;101814.59;5029849;28;20025;-57
2022/07/24 06:52:51;;;;;;;37.20;27.40;;;;;;;18.50;78.58;101831.88;5032532;28;20075;-56
2022/07/24 06:55:16;;;;;;;36.15;27.42;;;;;;;18.56;78.65;101816.78;5016855;28;20483;-54
2022/07/24 06:57:42;;;;;;;32.28;25.50;;;;;;;18.62;77.96;101821.41;5029040;28;20619;-56
2022/07/24 07:00:09;;;;;;;34.78;24.38;;;;;;;18.69;76.83;101833.00;5024242;28;20092;-56
2022/07/24 07:02:34;;;;;;;34.67;23.80;;;;;;;18.76;76.08;101817.72;5034783;28;20033;-55
2022/07/24 07:04:59;;;;;;;29.67;22.48;;;;;;;18.87;76.50;101819.84;5028481;28;20022;-56
2022/07/24 07:07:25;;;;;;;27.42;21.30;;;;;;;18.93;75.51;101822.78;5038963;28;20017;-56
2022/07/24 07:09:50;;;;;;;29.10;21.27;;;;;;;19.03;75.02;101818.66;5032370;28;20550;-55
2022/07/24 07:12:15;;;;;;;26.70;20.38;;;;;;;19.11;75.02;101814.97;5036995;28;20033;-55
2022/07/24 07:14:40;;;;;;;25.73;19.05;;;;;;;19.21;73.85;101812.72;5029398;28;20026;-57
2022/07/24 07:17:06;;;;;;;25.95;16.75;;;;;;;19.35;73.74;101825.16;5025899;28;20032;-57
2022/07/24 07:19:31;;;;;;;21.52;16.33;;;;;;;19.43;72.24;101832.22;5035568;28;20025;-57
2022/07/24 07:21:58;;;;;;;20.98;15.77;;;;;;;19.49;71.88;101829.53;5036748;28;20032;-57
2022/07/24 07:24:23;;;;;;;20.05;14.73;;;;;;;19.65;70.17;101840.97;5030972;28;20033;-55
2022/07/24 07:26:48;;;;;;;19.30;14.13;;;;;;;19.76;70.78;101835.81;5026777;28;20113;-56
2022/07/24 07:29:14;;;;;;;17.80;14.43;;;;;;;19.84;69.76;101831.25;5025580;28;20028;-55
2022/07/24 07:31:39;;;;;;;17.63;12.20;;;;;;;19.92;68.34;101829.16;5027163;28;20598;-56
2022/07/24 07:34:05;;;;;;;13.98;11.48;;;;;;;19.96;67.59;101826.91;5033281;28;20048;-57
2022/07/24 07:36:30;;;;;;;16.83;12.45;;;;;;;20.02;67.03;101826.91;5029405;28;20619;-56
2022/07/24 07:38:57;;;;;;;12.90;10.77;;;;;;;20.08;66.50;101833.31;5031594;28;20231;-57
2022/07/24 07:41:23;;;;;;;13.73;10.65;;;;;;;20.19;66.33;101838.06;5028739;28;20485;-54
2022/07/24 07:43:48;;;;;;;12.57;9.25;;;;;;;20.22;65.57;101823.31;5030473;28;20048;-57
2022/07/24 07:46:15;;;;;;;13.18;9.00;;;;;;;20.34;64.32;101827.06;5035399;28;20049;-57
2022/07/24 07:48:41;;;;;;;11.30;8.50;;;;;;;20.43;64.65;101828.50;5032714;28;20440;-57
2022/07/24 07:51:07;;;;;;;12.32;8.40;;;;;;;20.51;64.01;101827.44;5034155;28;20033;-57
2022/07/24 07:53:32;;;;;;;11.15;8.77;;;;;;;20.61;63.46;101838.63;5026736;28;20025;-56
2022/07/24 07:55:57;;;;;;;11.88;8.25;;;;;;;20.68;63.13;101834.88;5028343;28;20022;-56
2022/07/24 07:58:23;;;;;;;13.00;8.05;;;;;;;20.76;62.67;101824.88;5035299;28;20020;-56
2022/07/24 08:00:49;;;;;;;8.93;7.20;;;;;;;20.83;62.28;101825.69;5025987;28;20026;-57
2022/07/24 08:03:15;;;;;;;10.38;7.88;;;;;;;20.84;62.08;101824.66;5024767;28;20044;-57
2022/07/24 08:05:40;;;;;;;8.07;7.15;;;;;;;20.88;62.30;101812.38;5031355;28;20021;-57
2022/07/24 08:08:05;;;;;;;8.60;7.38;;;;;;;20.95;62.28;101821.25;5027734;28;20039;-57
2022/07/24 08:10:31;;;;;;;9.23;7.13;;;;;;;21.03;61.74;101826.41;5034015;28;20028;-56
2022/07/24 08:12:56;;;;;;;10.52;7.30;;;;;;;21.16;62.19;101815.53;5032866;28;20057;-56
2022/07/24 08:15:22;;;;;;;10.25;7.03;;;;;;;21.23;61.22;101820.91;5021549;28;20032;-57
2022/07/24 08:17:52;;;;;;;8.88;6.72;;;;;;;21.32;60.75;101827.72;5025058;28;20533;-57
2022/07/24 08:20:17;;;;;;;9.40;6.47;;;;;;;21.42;60.81;101819.16;5029315;28;20026;-58
2022/07/24 08:22:42;;;;;;;9.57;6.13;;;;;;;21.50;60.20;101824.28;5029700;28;20032;-57
2022/07/24 08:25:08;;;;;;;8.02;5.85;;;;;;;21.60;60.30;101830.03;5027115;28;20033;-57
2022/07/24 08:27:37;;;;;;;6.95;5.95;;;;;;;21.68;59.62;101828.94;5027516;28;20578;-57
2022/07/24 08:30:04;;;;;;;6.43;4.70;;;;;;;21.83;59.37;101830.28;5028030;28;20037;-57
2022/07/24 08:32:29;;;;;;;5.30;4.20;;;;;;;21.97;58.56;101839.09;5025583;28;20082;-57
2022/07/24 08:34:55;;;;;;;4.88;3.90;;;;;;;22.08;58.16;101829.47;5032651;28;20104;-57
2022/07/24 08:37:20;;;;;;;4.72;3.65;;;;;;;22.17;57.37;101839.78;5018235;28;20037;-57
2022/07/24 08:39:46;;;;;;;3.92;3.60;;;;;;;22.21;56.35;101823.91;5026995;28;20026;-57
2022/07/24 08:42:11;;;;;;;5.03;3.70;;;;;;;22.30;57.00;101827.19;5027188;28;20079;-58
2022/07/24 08:44:38;;;;;;;4.45;3.70;;;;;;;22.38;56.64;101835.81;5034957;28;20017;-58
2022/07/24 08:47:03;;;;;;;6.22;3.90;;;;;;;22.45;56.30;101822.19;5025415;28;20025;-57
2022/07/24 08:49:32;;;;;;;5.15;3.25;;;;;;;22.53;56.29;101828.13;5027509;28;20083;-58
2022/07/24 08:52:00;;;;;;;;;;;;;;;22.68;56.62;101829.66;5029552;28;20498;-57
2022/07/24 08:54:25;;;;;;;5.15;3.20;;;;;;;22.68;55.50;101822.34;5029077;28;19940;-57
2022/07/24 08:56:50;;;;;;;3.35;2.90;;;;;;;22.75;55.80;101820.38;5029797;28;20028;-57
2022/07/24 08:59:21;;;;;;;6.78;3.30;;;;;;;22.80;55.43;101820.53;5033789;28;20098;-57
2022/07/24 09:01:50;;;;;;;4.18;3.10;;;;;;;22.92;55.69;101825.22;5021332;28;20052;-57
2022/07/24 09:04:44;;;;;;;3.28;2.97;;;;;;;22.99;55.27;101821.38;5026577;28;20033;-57
2022/07/24 09:07:23;;;;;;;3.80;3.30;;;;;;;23.16;55.68;101816.97;5028854;28;20060;-57
2022/07/24 09:10:19;;;;;;;4.53;3.38;;;;;;;23.35;55.66;101809.59;5021063;28;20043;-55
2022/07/24 09:12:46;;;;;;;4.82;3.10;;;;;;;23.50;55.42;101811.88;5020657;28;20018;-57
2022/07/24 09:15:13;;;;;;;4.70;3.40;;;;;;;23.54;54.36;101807.63;5021824;28;20435;-57
2022/07/24 09:17:56;;;;;;;5.85;3.40;;;;;;;23.56;54.22;101802.00;5026676;28;20030;-55
2022/07/24 09:20:24;;;;;;;4.40;3.10;;;;;;;23.61;54.41;101807.56;5029657;28;20032;-57
2022/07/24 09:22:50;;;;;;;3.38;2.80;;;;;;;23.65;53.94;101793.28;5034217;28;20061;-57
2022/07/24 09:25:19;;;;;;;3.55;3.20;;;;;;;23.70;54.03;101796.13;5027760;28;20031;-57
2022/07/24 09:27:53;;;;;;;5.18;3.20;;;;;;;23.76;53.70;101799.81;5022603;28;20032;-57
2022/07/24 09:30:24;;;;;;;5.18;3.20;;;;;;;23.83;53.87;101796.97;5029905;28;20032;-55
2022/07/24 09:32:53;;;;;;;3.50;3.20;;;;;;;23.92;53.75;101788.22;5026075;28;20056;-57
2022/07/24 09:35:21;;;;;;;;;;;;;;;23.96;54.32;101788.59;5027974;28;20104;-57
2022/07/24 09:37:53;;;;;;;5.30;3.22;;;;;;;24.21;54.28;101786.44;5028917;28;19916;-56
2022/07/24 09:40:19;;;;;;;4.07;3.30;;;;;;;24.35;54.09;101787.88;5033829;28;20096;-57
2022/07/24 09:42:44;;;;;;;4.93;3.13;;;;;;;24.45;53.39;101779.13;5027272;28;20108;-57
2022/07/24 09:45:10;;;;;;;3.63;3.10;;;;;;;24.48;52.87;101785.94;5033029;28;20026;-57
2022/07/24 09:47:36;;;;;;;5.28;3.45;;;;;;;24.48;53.32;101781.34;5022066;28;20048;-57
2022/07/24 09:50:26;;;;;;;4.28;3.30;;;;;;;24.60;52.87;101789.47;5023306;28;20025;-57
2022/07/24 09:52:52;;;;;;;5.22;3.40;;;;;;;24.57;52.45;101782.59;5020754;28;20029;-56
2022/07/24 09:55:23;;;;;;;3.33;2.92;;;;;;;24.66;51.79;101785.78;5019924;28;20036;-57
2022/07/24 09:57:49;;;;;;;3.20;2.90;;;;;;;24.70;51.79;101770.66;5025768;28;20017;-57
2022/07/24 10:00:15;;;;;;;3.45;2.55;;;;;;;24.79;51.49;101773.81;5029245;28;20492;-57
2022/07/24 10:02:43;;;;;;;5.30;2.70;;;;;;;24.80;50.50;101772.75;5031041;28;20048;-57
2022/07/24 10:05:11;;;;;;;4.25;3.10;;;;;;;24.89;50.44;101769.41;5027632;28;20100;-56
2022/07/24 10:07:37;;;;;;;6.10;2.90;;;;;;;24.98;50.31;101776.13;5029358;28;20026;-56
2022/07/24 10:10:02;;;;;;;2.70;2.50;;;;;;;25.11;50.77;101764.09;5031733;28;20017;-58
2022/07/24 10:12:31;;;;;;;3.08;2.55;;;;;;;25.20;50.57;101767.28;5029476;28;20498;-57
2022/07/24 10:14:59;;;;;;;4.45;2.60;;;;;;;25.27;50.36;101759.78;5026998;28;20462;-58
2022/07/24 10:18:07;;;;;;;3.72;2.50;;;;;;;25.35;49.46;101764.81;5022926;28;20034;-58
2022/07/24 10:20:40;;;;;;;5.45;2.72;;;;;;;25.36;49.49;101758.28;5007570;28;20045;-57
2022/07/24 10:23:07;;;;;;;3.45;2.55;;;;;;;25.40;49.72;101756.72;5024521;28;20120;-57
2022/07/24 10:25:51;;;;;;;3.60;2.40;;;;;;;25.55;49.05;101756.16;5033330;28;20085;-57
2022/07/24 10:28:52;;;;;;;2.60;2.40;;;;;;;25.62;48.83;101751.38;5025877;28;20026;-57
2022/07/24 10:31:18;;;;;;;4.20;2.70;;;;;;;25.86;49.34;101749.31;5005463;28;20041;-57
2022/07/24 10:33:53;;;;;;;3.42;2.67;;;;;;;25.87;48.53;101753.69;5024222;28;20029;-56
2022/07/24 10:36:25;;;;;;;2.60;2.40;;;;;;;26.10;48.51;101755.38;5028153;28;20029;-55
2022/07/24 10:38:58;;;;;;;3.67;2.55;;;;;;;26.12;48.49;101758.66;5026191;28;20034;-58
2022/07/24 10:41:26;;;;;;;5.15;2.70;;;;;;;26.16;47.66;101763.34;5023290;28;20033;-57
2022/07/24 10:44:17;;;;;;;4.57;2.45;;;;;;;26.26;47.95;101754.47;5025444;28;20040;-57
2022/07/24 10:47:03;;;;;;;3.20;2.30;;;;;;;26.43;47.90;101759.91;5021336;28;20025;-56
2022/07/24 10:49:46;;;;;;;3.15;2.78;;;;;;;26.22;46.00;101756.88;5026328;28;20541;-57
2022/07/24 10:52:25;;;;;;;2.65;2.25;;;;;;;26.15;46.50;101748.09;5018956;28;20537;-57
2022/07/24 10:55:45;;;;;;;4.15;2.50;;;;;;;26.38;47.39;101749.78;5025989;28;20018;-55
2022/07/24 10:58:10;;;;;;;3.70;2.60;;;;;;;26.39;46.04;101737.81;4963395;28;20062;-55
2022/07/24 11:00:38;;;;;;;4.38;2.20;;;;;;;26.63;46.85;101735.63;5012507;28;20115;-57
2022/07/24 11:03:17;;;;;;;3.10;2.50;;;;;;;26.69;45.57;101741.94;5032892;28;20360;-57
2022/07/24 11:05:43;;;;;;;;;;;;;;;26.83;45.79;101738.56;5034805;28;20032;-58
2022/07/24 11:08:22;;;;;;;2.63;2.42;;;;;;;26.89;44.99;101736.72;5032805;28;19996;-57
2022/07/24 11:10:52;;;;;;;2.67;2.40;;;;;;;26.86;45.00;101740.75;5032922;28;20028;-57
2022/07/24 11:13:33;;;;;;;2.60;2.40;;;;;;;26.83;44.76;101740.44;5030259;28;20483;-58